Time;durP1;ratioP1;P1;durP2;ratioP2;P2;SDS_P1;SDS_P2;PMS_P1;PMS_P2;Temp;Humidity;BMP_temperature;BMP_pressure;BME280_temperature;BME280_humidity;BME280_pressure;Samples;Min_cycle;Max_cycle;Signal;HPM_P1;HPM_P2
2021/08/16 00:00:43;;;;;;;5.80;4.00;;;21.70;99.90;;;;;;5121549;27;20130;-77
2021/08/16 00:03:10;;;;;;;8.20;4.47;;;21.70;99.90;;;;;;5132328;27;20078;-78
2021/08/16 00:05:38;;;;;;;9.45;4.10;;;21.70;99.90;;;;;;5135776;27;20070;-77
2021/08/16 00:08:08;;;;;;;6.70;4.15;;;21.60;99.90;;;;;;5124091;27;20047;-74
2021/08/16 00:10:36;;;;;;;8.45;4.20;;;21.60;99.90;;;;;;5130869;27;20057;-77
2021/08/16 00:13:03;;;;;;;7.70;4.10;;;21.60;99.90;;;;;;5115984;28;20123;-78
2021/08/16 00:15:30;;;;;;;7.78;3.88;;;21.60;99.90;;;;;;5120310;27;20130;-77
2021/08/16 00:17:59;;;;;;;6.47;4.20;;;21.60;99.90;;;;;;5129753;27;20043;-78
2021/08/16 00:20:27;;;;;;;7.50;4.15;;;21.60;99.90;;;;;;5130812;27;20056;-78
2021/08/16 00:22:56;;;;;;;6.95;4.38;;;21.60;99.90;;;;;;5130020;27;20111;-78
2021/08/16 00:25:24;;;;;;;12.20;6.60;;;21.60;99.90;;;;;;5129769;27;20466;-75
2021/08/16 00:27:52;;;;;;;11.10;5.82;;;21.50;99.90;;;;;;5122770;27;20130;-76
2021/08/16 00:30:20;;;;;;;9.63;5.47;;;21.60;99.90;;;;;;5126700;27;20047;-77
2021/08/16 00:32:47;;;;;;;7.93;5.40;;;21.60;99.90;;;;;;5128918;27;20067;-79
2021/08/16 00:35:14;;;;;;;12.85;6.07;;;21.70;99.90;;;;;;5126882;27;20051;-80
2021/08/16 00:37:41;;;;;;;8.95;6.30;;;21.70;99.90;;;;;;5123977;27;20127;-79
2021/08/16 00:40:13;;;;;;;9.80;6.05;;;21.70;99.90;;;;;;5125081;27;20043;-79
2021/08/16 00:42:40;;;;;;;8.18;5.80;;;21.80;99.90;;;;;;5128819;27;20118;-77
2021/08/16 00:45:09;;;;;;;10.00;5.50;;;21.80;99.90;;;;;;5108566;27;20039;-78
2021/08/16 00:47:38;;;;;;;8.68;5.13;;;21.80;99.90;;;;;;5120300;27;20130;-78
2021/08/16 00:50:07;;;;;;;9.50;6.25;;;21.90;99.90;;;;;;5126136;27;20146;-78
2021/08/16 00:52:34;;;;;;;11.25;6.75;;;21.90;99.90;;;;;;5127340;27;20205;-76
2021/08/16 00:55:02;;;;;;;9.77;6.00;;;21.90;99.90;;;;;;5128822;27;20126;-78
2021/08/16 00:57:32;;;;;;;10.57;6.15;;;21.90;99.90;;;;;;5121199;27;20134;-79
2021/08/16 01:00:02;;;;;;;11.32;6.20;;;21.90;99.90;;;;;;5127470;27;20404;-79
2021/08/16 01:02:31;;;;;;;9.57;5.85;;;21.90;99.90;;;;;;5123291;27;20131;-79
2021/08/16 01:04:59;;;;;;;10.27;6.70;;;21.90;99.90;;;;;;5129998;27;20126;-77
2021/08/16 01:07:26;;;;;;;11.35;5.85;;;21.90;99.90;;;;;;5105346;27;20138;-79
2021/08/16 01:09:53;;;;;;;8.85;6.28;;;21.90;99.90;;;;;;5128970;27;20066;-79
2021/08/16 01:12:20;;;;;;;8.85;6.20;;;22.00;99.90;;;;;;5123995;27;20433;-79
2021/08/16 01:14:48;;;;;;;11.15;6.07;;;21.90;99.90;;;;;;5121464;27;20122;-78
2021/08/16 01:17:15;;;;;;;11.10;6.82;;;22.00;99.90;;;;;;5131697;27;20459;-78
2021/08/16 01:19:43;;;;;;;11.15;6.22;;;22.00;99.90;;;;;;5125821;27;20092;-78
2021/08/16 01:22:10;;;;;;;10.88;7.32;;;22.00;99.90;;;;;;5132039;27;20042;-78
2021/08/16 01:24:37;;;;;;;10.07;6.47;;;22.00;99.90;;;;;;5123522;27;20127;-79
2021/08/16 01:27:09;;;;;;;11.75;6.22;;;22.10;99.90;;;;;;5115657;27;20130;-77
2021/08/16 01:29:36;;;;;;;10.63;5.90;;;22.10;99.90;;;;;;5111704;27;20049;-78
2021/08/16 01:32:04;;;;;;;11.77;6.32;;;22.10;99.90;;;;;;5132467;27;20489;-78
2021/08/16 01:34:31;;;;;;;10.80;6.57;;;22.20;99.90;;;;;;5133735;27;20045;-78
2021/08/16 01:36:59;;;;;;;13.93;7.60;;;22.10;99.90;;;;;;5127170;27;20043;-78
2021/08/16 01:39:26;;;;;;;12.48;6.93;;;22.10;99.90;;;;;;5127308;27;20043;-78
2021/08/16 01:41:54;;;;;;;11.82;6.80;;;22.10;99.90;;;;;;5139408;27;20058;-80
2021/08/16 01:44:24;;;;;;;11.05;7.07;;;22.00;99.90;;;;;;5133797;27;20456;-78
2021/08/16 01:46:53;;;;;;;11.73;7.00;;;22.10;99.90;;;;;;5121122;27;20053;-78
2021/08/16 01:49:21;;;;;;;11.15;6.90;;;22.00;99.90;;;;;;5123602;27;20066;-80
2021/08/16 01:51:48;;;;;;;11.48;6.63;;;22.00;99.90;;;;;;5123482;27;20048;-80
2021/08/16 01:54:18;;;;;;;12.48;6.90;;;22.00;99.90;;;;;;5130360;27;20074;-77
2021/08/16 01:56:45;;;;;;;11.55;7.35;;;22.00;99.90;;;;;;5120069;27;20122;-79
2021/08/16 01:59:13;;;;;;;11.85;7.38;;;22.00;99.90;;;;;;5124633;27;20042;-79
2021/08/16 02:01:41;;;;;;;14.90;7.57;;;21.90;99.90;;;;;;5120741;27;20073;-77
2021/08/16 02:04:09;;;;;;;11.05;6.90;;;22.00;99.90;;;;;;5129472;27;20467;-78
2021/08/16 02:06:36;;;;;;;15.48;7.82;;;21.90;99.90;;;;;;5123304;27;20043;-74
2021/08/16 02:09:04;;;;;;;12.10;7.30;;;21.90;99.90;;;;;;5132804;27;20057;-76
2021/08/16 02:11:31;;;;;;;12.57;7.47;;;21.90;99.90;;;;;;5113967;27;20039;-78
2021/08/16 02:13:58;;;;;;;12.18;7.25;;;21.90;99.90;;;;;;5126359;27;20122;-77
2021/08/16 02:16:25;;;;;;;9.98;6.22;;;21.80;99.90;;;;;;5124443;27;20588;-77
2021/08/16 02:18:54;;;;;;;9.68;5.80;;;21.70;99.90;;;;;;5125620;27;20471;-77
2021/08/16 02:21:21;;;;;;;8.38;5.60;;;21.60;99.90;;;;;;5124723;27;20484;-80
2021/08/16 02:23:48;;;;;;;9.38;5.30;;;21.60;99.90;;;;;;5120959;27;20506;-79
2021/08/16 02:26:15;;;;;;;7.95;5.35;;;21.60;99.90;;;;;;5127092;28;20138;-80
2021/08/16 02:28:42;;;;;;;8.35;4.82;;;21.60;99.90;;;;;;5126640;27;20042;-78
2021/08/16 02:31:09;;;;;;;8.18;4.95;;;21.60;99.90;;;;;;5118117;28;20489;-80
2021/08/16 02:33:36;;;;;;;6.97;4.40;;;21.60;99.90;;;;;;5129863;27;20069;-76
2021/08/16 02:36:04;;;;;;;8.23;4.80;;;21.70;99.90;;;;;;5114099;28;20119;-79
2021/08/16 02:38:31;;;;;;;7.25;4.28;;;21.70;99.90;;;;;;5114680;28;20127;-79
2021/08/16 02:40:58;;;;;;;5.55;3.83;;;21.60;99.90;;;;;;5121745;28;20066;-79
2021/08/16 02:43:28;;;;;;;5.78;3.22;;;21.60;99.90;;;;;;5122217;28;20130;-78
2021/08/16 02:45:55;;;;;;;5.68;3.17;;;21.60;99.90;;;;;;5121757;27;20035;-80
2021/08/16 02:48:22;;;;;;;6.22;3.55;;;21.60;99.90;;;;;;5123375;28;20134;-78
2021/08/16 02:50:49;;;;;;;5.05;3.30;;;21.60;99.90;;;;;;5120324;28;20126;-80
2021/08/16 02:53:18;;;;;;;5.72;3.28;;;21.60;99.90;;;;;;5124058;28;20126;-80
2021/08/16 02:55:45;;;;;;;5.88;3.20;;;21.60;99.90;;;;;;5119651;28;20568;-78
2021/08/16 02:58:12;;;;;;;6.57;3.40;;;21.60;99.90;;;;;;5122203;28;20127;-79
2021/08/16 03:00:39;;;;;;;5.13;3.25;;;21.70;99.90;;;;;;5127839;27;20118;-80
2021/08/16 03:03:06;;;;;;;5.40;3.38;;;21.70;99.90;;;;;;5120727;27;20138;-79
2021/08/16 03:05:33;;;;;;;5.55;3.05;;;21.70;99.90;;;;;;5124009;27;20119;-77
2021/08/16 03:08:00;;;;;;;6.55;3.00;;;21.70;99.90;;;;;;5131869;28;20435;-78
2021/08/16 03:10:28;;;;;;;5.15;3.00;;;21.70;99.90;;;;;;5116998;28;20126;-78
2021/08/16 03:12:57;;;;;;;4.90;3.05;;;21.70;99.90;;;;;;5118685;27;20046;-79
2021/08/16 03:15:24;;;;;;;6.13;3.55;;;21.70;99.90;;;;;;5123379;27;20046;-79
2021/08/16 03:17:51;;;;;;;7.05;4.05;;;21.70;99.90;;;;;;5128877;27;20051;-81
2021/08/16 03:20:19;;;;;;;8.90;3.75;;;21.70;99.90;;;;;;5124325;27;20128;-78
2021/08/16 03:22:46;;;;;;;8.80;4.50;;;21.70;99.90;;;;;;5120593;27;20426;-77
2021/08/16 03:25:14;;;;;;;6.47;3.88;;;21.60;99.90;;;;;;5124972;27;20098;-78
2021/08/16 03:27:42;;;;;;;8.07;4.00;;;21.50;99.90;;;;;;5125572;27;20514;-77
2021/08/16 03:30:12;;;;;;;6.85;3.90;;;21.40;99.90;;;;;;5125028;27;20039;-74
2021/08/16 03:32:40;;;;;;;6.03;3.95;;;21.30;99.90;;;;;;5118785;27;20035;-78
2021/08/16 03:35:08;;;;;;;6.63;3.85;;;21.30;99.90;;;;;;5115275;27;20130;-79
2021/08/16 03:37:35;;;;;;;7.38;4.30;;;21.20;99.90;;;;;;5125980;27;20944;-79
2021/08/16 03:40:05;;;;;;;6.85;4.25;;;21.20;99.90;;;;;;5118476;27;20044;-79
2021/08/16 03:42:33;;;;;;;9.73;4.40;;;21.10;99.90;;;;;;5110776;27;20066;-79
2021/08/16 03:45:01;;;;;;;7.50;4.32;;;21.10;99.90;;;;;;5125572;27;20050;-78
2021/08/16 03:47:29;;;;;;;7.35;4.85;;;21.10;99.90;;;;;;5125182;27;20078;-78
2021/08/16 03:49:56;;;;;;;8.32;4.40;;;21.00;99.90;;;;;;5119349;27;20135;-77
2021/08/16 03:52:23;;;;;;;9.02;4.93;;;21.00;99.90;;;;;;5126506;27;20126;-75
2021/08/16 03:54:50;;;;;;;8.88;4.47;;;20.90;99.90;;;;;;5131582;27;20128;-78
2021/08/16 03:57:17;;;;;;;9.70;4.57;;;20.90;99.90;;;;;;5129858;27;20070;-78
2021/08/16 03:59:44;;;;;;;8.48;4.60;;;20.90;99.90;;;;;;5130626;27;20535;-78
2021/08/16 04:02:12;;;;;;;7.00;4.57;;;20.80;99.90;;;;;;5129950;27;20118;-80
2021/08/16 04:04:39;;;;;;;7.75;4.70;;;20.80;99.90;;;;;;5121203;27;20039;-78
2021/08/16 04:07:06;;;;;;;9.85;5.32;;;20.80;99.90;;;;;;5127195;27;20122;-78
2021/08/16 04:09:33;;;;;;;8.82;4.75;;;20.80;99.90;;;;;;5125465;27;20075;-80
2021/08/16 04:12:00;;;;;;;9.45;4.70;;;20.80;99.90;;;;;;5123787;27;20454;-81
2021/08/16 04:14:27;;;;;;;9.57;5.43;;;20.80;99.90;;;;;;5127545;27;20118;-79
2021/08/16 04:16:55;;;;;;;8.52;5.40;;;20.80;99.90;;;;;;5119730;27;20143;-79
2021/08/16 04:19:23;;;;;;;8.93;5.45;;;20.70;99.90;;;;;;5117556;27;20083;-80
2021/08/16 04:21:50;;;;;;;7.28;5.30;;;20.70;99.90;;;;;;5120936;27;20078;-78
2021/08/16 04:24:19;;;;;;;8.05;4.95;;;20.70;99.90;;;;;;5123169;27;20075;-79
2021/08/16 04:26:46;;;;;;;11.50;5.10;;;20.60;99.90;;;;;;5124451;27;20134;-77
2021/08/16 04:29:13;;;;;;;8.77;5.18;;;20.60;99.90;;;;;;5129509;27;20046;-78
2021/08/16 04:31:40;;;;;;;9.63;5.10;;;20.60;99.90;;;;;;5134064;27;20407;-78
2021/08/16 04:34:07;;;;;;;6.70;4.63;;;20.60;99.90;;;;;;5135742;27;20133;-79
2021/08/16 04:36:35;;;;;;;8.05;5.03;;;20.60;99.90;;;;;;5136206;27;20130;-77
2021/08/16 04:39:02;;;;;;;6.68;4.60;;;20.60;99.90;;;;;;5141109;27;20304;-78
2021/08/16 04:41:30;;;;;;;7.03;4.95;;;20.60;99.90;;;;;;5138863;27;20133;-79
2021/08/16 04:43:57;;;;;;;9.43;4.90;;;20.60;99.90;;;;;;5135988;27;20039;-77
2021/08/16 04:46:24;;;;;;;7.32;5.07;;;20.60;99.90;;;;;;5135766;27;20256;-79
2021/08/16 04:48:51;;;;;;;7.90;5.07;;;20.60;99.90;;;;;;5135504;27;20055;-80
2021/08/16 04:51:18;;;;;;;7.93;5.05;;;20.60;99.90;;;;;;5135598;27;20129;-79
2021/08/16 04:53:46;;;;;;;8.38;4.80;;;20.50;99.90;;;;;;5135479;27;20085;-78
2021/08/16 04:56:13;;;;;;;8.48;4.82;;;20.40;99.90;;;;;;5135727;27;20131;-78
2021/08/16 04:58:40;;;;;;;9.18;4.93;;;20.40;99.90;;;;;;5140893;27;20501;-76
2021/08/16 05:01:07;;;;;;;9.02;5.50;;;20.50;99.90;;;;;;5124329;28;20075;-78
2021/08/16 05:03:34;;;;;;;8.18;5.22;;;20.50;99.90;;;;;;5114476;28;20127;-78
2021/08/16 05:06:06;;;;;;;8.07;5.25;;;20.50;99.90;;;;;;5114679;28;20126;-79
2021/08/16 05:08:35;;;;;;;9.48;5.38;;;20.50;99.90;;;;;;5114213;28;20051;-80
2021/08/16 05:11:03;;;;;;;8.77;5.15;;;20.50;99.90;;;;;;5114713;28;20047;-79
2021/08/16 05:13:30;;;;;;;9.75;5.38;;;20.50;99.90;;;;;;5114749;28;20134;-79
2021/08/16 05:15:58;;;;;;;10.27;6.10;;;20.50;99.90;;;;;;5114587;28;20135;-79
2021/08/16 05:18:25;;;;;;;10.68;5.88;;;20.50;99.90;;;;;;5114587;28;20074;-79
2021/08/16 05:20:52;;;;;;;8.82;5.82;;;20.50;99.90;;;;;;5114339;28;20170;-80
2021/08/16 05:23:20;;;;;;;9.55;5.45;;;20.40;99.90;;;;;;5116478;28;20103;-80
2021/08/16 05:25:47;;;;;;;9.80;6.00;;;20.40;99.90;;;;;;5116367;28;20134;-77
2021/08/16 05:28:16;;;;;;;8.20;5.40;;;20.50;99.90;;;;;;5114622;28;20154;-75
2021/08/16 05:30:43;;;;;;;9.48;5.60;;;20.50;99.90;;;;;;5120924;28;20051;-78
2021/08/16 05:33:10;;;;;;;9.32;5.60;;;20.50;99.90;;;;;;5120353;28;20083;-78
2021/08/16 05:35:37;;;;;;;10.68;5.78;;;20.50;99.90;;;;;;5120102;28;20843;-78
2021/08/16 05:38:05;;;;;;;9.68;6.78;;;20.50;99.90;;;;;;5120475;28;20366;-79
2021/08/16 05:40:31;;;;;;;9.65;5.80;;;20.50;99.90;;;;;;5116076;28;20446;-80
2021/08/16 05:43:00;;;;;;;9.52;5.75;;;20.60;99.90;;;;;;5114558;28;20046;-79
2021/08/16 05:45:28;;;;;;;9.95;6.28;;;20.60;99.90;;;;;;5114422;28;20134;-81
2021/08/16 05:47:55;;;;;;;9.02;6.03;;;20.70;99.90;;;;;;5114217;28;20063;-79
2021/08/16 05:50:23;;;;;;;8.90;6.22;;;20.70;99.90;;;;;;5114824;28;20197;-75
2021/08/16 05:52:51;;;;;;;9.85;6.53;;;20.70;99.90;;;;;;5120634;28;20059;-79
2021/08/16 05:55:18;;;;;;;9.23;6.25;;;20.80;99.90;;;;;;5120875;28;20082;-77
2021/08/16 05:57:46;;;;;;;8.65;6.72;;;20.80;99.90;;;;;;5121025;28;20123;-80
2021/08/16 06:00:18;;;;;;;13.43;6.47;;;20.80;99.90;;;;;;5117513;28;20146;-78
2021/08/16 06:02:47;;;;;;;10.80;6.35;;;20.90;99.90;;;;;;5114151;28;20055;-78
2021/08/16 06:05:15;;;;;;;9.57;6.65;;;20.80;99.90;;;;;;5116483;28;20047;-79
2021/08/16 06:07:42;;;;;;;9.32;6.15;;;20.80;99.90;;;;;;5120817;28;20040;-78
2021/08/16 06:10:11;;;;;;;10.18;5.90;;;20.90;99.90;;;;;;5126352;28;20044;-74
2021/08/16 06:12:38;;;;;;;11.85;6.03;;;20.80;99.90;;;;;;5117988;28;20048;-78
2021/08/16 06:15:08;;;;;;;8.38;6.22;;;20.90;99.90;;;;;;5125017;28;20074;-78
2021/08/16 06:17:37;;;;;;;8.38;5.45;;;20.90;99.90;;;;;;5115110;28;20047;-80
2021/08/16 06:20:07;;;;;;;11.27;6.30;;;21.00;99.90;;;;;;5113559;28;20143;-78
2021/08/16 06:22:34;;;;;;;8.43;5.63;;;21.00;99.90;;;;;;5113996;28;20146;-78
2021/08/16 06:25:02;;;;;;;11.00;6.15;;;21.00;99.90;;;;;;5113998;28;20068;-78
2021/08/16 06:27:29;;;;;;;10.10;5.78;;;21.00;99.90;;;;;;5113873;28;20079;-79
2021/08/16 06:29:56;;;;;;;9.35;5.45;;;21.00;99.90;;;;;;5113915;28;20147;-78
2021/08/16 06:32:23;;;;;;;9.88;5.70;;;21.00;99.90;;;;;;5113717;28;20496;-79
2021/08/16 06:34:50;;;;;;;8.93;5.13;;;21.00;99.90;;;;;;5113803;28;20130;-79
2021/08/16 06:37:18;;;;;;;9.70;5.43;;;20.90;99.90;;;;;;5113404;28;20568;-79
2021/08/16 06:39:46;;;;;;;8.30;5.15;;;20.90;99.90;;;;;;5113752;28;20143;-79
2021/08/16 06:42:13;;;;;;;9.23;5.20;;;20.90;99.90;;;;;;5113583;28;20517;-79
2021/08/16 06:44:40;;;;;;;7.72;4.78;;;20.90;99.90;;;;;;5113667;28;20126;-79
2021/08/16 06:47:07;;;;;;;10.10;5.07;;;20.80;99.90;;;;;;5114057;28;20130;-80
2021/08/16 06:49:34;;;;;;;9.93;5.38;;;20.90;99.90;;;;;;5117471;28;20556;-76
2021/08/16 06:52:01;;;;;;;10.45;4.90;;;20.90;99.90;;;;;;5117977;28;20135;-79
2021/08/16 06:54:30;;;;;;;9.15;5.43;;;20.90;99.90;;;;;;5117895;28;20130;-78
2021/08/16 06:56:58;;;;;;;10.32;5.25;;;20.90;99.90;;;;;;5117934;28;20147;-77
2021/08/16 06:59:25;;;;;;;8.10;4.78;;;21.00;99.90;;;;;;5097683;28;20055;-80
2021/08/16 07:01:52;;;;;;;8.27;4.50;;;20.90;99.90;;;;;;5096353;28;20058;-78
2021/08/16 07:04:19;;;;;;;8.30;4.75;;;21.00;99.90;;;;;;5096747;28;20132;-80
2021/08/16 07:06:46;;;;;;;9.35;4.60;;;21.00;99.90;;;;;;5096442;28;20474;-80
2021/08/16 07:09:13;;;;;;;8.38;4.65;;;21.10;99.60;;;;;;5096563;28;20058;-79
2021/08/16 07:11:42;;;;;;;11.75;5.10;;;21.10;99.60;;;;;;5097359;28;20461;-79
2021/08/16 07:14:09;;;;;;;9.82;4.25;;;21.00;99.70;;;;;;5098471;28;20127;-79
2021/08/16 07:16:36;;;;;;;9.48;4.80;;;21.20;99.50;;;;;;5096392;28;20559;-79
2021/08/16 07:19:03;;;;;;;7.03;4.30;;;21.00;99.20;;;;;;5096178;28;20094;-79
2021/08/16 07:21:30;;;;;;;10.20;4.72;;;21.00;99.30;;;;;;5096426;28;20127;-78
2021/08/16 07:23:57;;;;;;;8.88;4.22;;;21.00;99.30;;;;;;5096316;28;20131;-78
2021/08/16 07:26:24;;;;;;;6.78;3.92;;;21.10;99.50;;;;;;5096843;28;20473;-78
2021/08/16 07:28:52;;;;;;;8.68;3.88;;;21.10;99.60;;;;;;5096458;28;20044;-80
2021/08/16 07:31:19;;;;;;;7.82;4.28;;;21.20;99.80;;;;;;5096303;28;20561;-79
2021/08/16 07:33:46;;;;;;;8.15;4.22;;;21.20;99.70;;;;;;5096433;28;20131;-80
2021/08/16 07:36:13;;;;;;;8.55;4.10;;;21.30;99.50;;;;;;5096068;28;20142;-79
2021/08/16 07:38:41;;;;;;;10.45;4.85;;;21.30;99.50;;;;;;5096569;28;20138;-79
2021/08/16 07:41:08;;;;;;;8.52;4.40;;;21.40;99.60;;;;;;5096780;28;20139;-77
2021/08/16 07:43:35;;;;;;;9.38;3.78;;;21.40;98.90;;;;;;5097582;28;20131;-81
2021/08/16 07:46:03;;;;;;;7.18;3.72;;;21.30;98.50;;;;;;5097410;28;20544;-77
2021/08/16 07:48:30;;;;;;;6.50;3.83;;;21.40;98.30;;;;;;5106815;28;20051;-77
2021/08/16 07:50:57;;;;;;;8.93;4.00;;;21.40;97.50;;;;;;5099682;28;20629;-78
2021/08/16 07:53:25;;;;;;;7.18;3.67;;;21.30;96.90;;;;;;5095935;28;20040;-79
2021/08/16 07:55:52;;;;;;;8.88;3.85;;;21.30;96.10;;;;;;5095799;28;20134;-78
2021/08/16 07:58:19;;;;;;;6.18;3.50;;;21.30;96.30;;;;;;5094737;28;20135;-79
2021/08/16 08:00:45;;;;;;;6.22;3.20;;;21.30;96.30;;;;;;5098311;28;20044;-78
2021/08/16 08:03:14;;;;;;;8.27;3.45;;;21.30;96.40;;;;;;5116042;28;20039;-77
2021/08/16 08:05:41;;;;;;;8.23;3.20;;;21.30;95.60;;;;;;5115029;28;20130;-81
2021/08/16 08:08:08;;;;;;;6.95;3.42;;;21.40;95.80;;;;;;5116139;28;20134;-76
2021/08/16 08:10:35;;;;;;;7.22;3.22;;;21.30;95.40;;;;;;5115578;28;20143;-76
2021/08/16 08:13:02;;;;;;;6.20;2.97;;;21.30;95.50;;;;;;5124341;28;20063;-79
2021/08/16 08:15:29;;;;;;;6.95;3.05;;;21.30;95.40;;;;;;5116687;28;20124;-79
2021/08/16 08:17:56;;;;;;;6.07;3.28;;;21.40;95.60;;;;;;5116130;28;20132;-78
2021/08/16 08:20:25;;;;;;;7.90;3.17;;;21.40;95.20;;;;;;5116096;28;20146;-78
2021/08/16 08:22:52;;;;;;;5.60;2.80;;;21.50;95.30;;;;;;5116696;28;20130;-77
2021/08/16 08:25:19;;;;;;;6.30;3.22;;;21.60;94.70;;;;;;5116086;28;20126;-76
2021/08/16 08:27:46;;;;;;;6.60;3.03;;;21.70;95.00;;;;;;5117160;28;20111;-77
2021/08/16 08:30:14;;;;;;;5.38;2.95;;;21.80;95.10;;;;;;5125793;28;20079;-77
2021/08/16 08:32:49;;;;;;;6.85;3.20;;;21.80;94.40;;;;;;5118919;28;20094;-78
2021/08/16 08:35:18;;;;;;;4.93;2.75;;;21.90;93.90;;;;;;5115809;28;20130;-75
2021/08/16 08:37:46;;;;;;;6.82;3.30;;;21.80;93.70;;;;;;5116624;28;20105;-80
2021/08/16 08:40:13;;;;;;;5.88;3.00;;;21.80;94.00;;;;;;5121236;28;20127;-78
2021/08/16 08:42:40;;;;;;;7.43;3.15;;;21.80;93.80;;;;;;5123782;28;20068;-75
2021/08/16 08:45:09;;;;;;;7.57;3.20;;;21.70;93.40;;;;;;5115643;28;20075;-79
2021/08/16 08:47:37;;;;;;;6.35;2.75;;;21.70;93.60;;;;;;5115389;28;20050;-77
2021/08/16 08:50:05;;;;;;;6.25;3.00;;;21.70;93.80;;;;;;5115047;28;20047;-79
2021/08/16 08:52:32;;;;;;;5.90;2.80;;;21.70;93.60;;;;;;5118422;28;20107;-77
2021/08/16 08:55:00;;;;;;;6.63;3.00;;;21.70;94.10;;;;;;5121223;28;20083;-79
2021/08/16 08:57:31;;;;;;;6.95;3.10;;;21.80;93.80;;;;;;5116969;28;20050;-79
2021/08/16 08:59:58;;;;;;;4.90;2.63;;;21.80;93.70;;;;;;5118235;28;20058;-79
2021/08/16 09:02:25;;;;;;;4.65;2.63;;;21.90;93.20;;;;;;5116096;28;20130;-76
2021/08/16 09:04:54;;;;;;;5.57;2.85;;;21.90;93.00;;;;;;5116417;28;20138;-80
2021/08/16 09:07:32;;;;;;;6.38;2.92;;;21.90;92.80;;;;;;5126442;28;20122;-76
2021/08/16 09:10:01;;;;;;;6.05;3.00;;;21.90;92.50;;;;;;5124651;28;20139;-78
2021/08/16 09:12:30;;;;;;;5.43;3.22;;;21.90;92.30;;;;;;5121142;28;20134;-77
2021/08/16 09:14:57;;;;;;;5.70;2.65;;;21.90;92.30;;;;;;5119613;28;20082;-78
2021/08/16 09:17:33;;;;;;;6.80;3.03;;;22.00;92.70;;;;;;5127033;28;20050;-78
2021/08/16 09:20:02;;;;;;;7.03;2.90;;;22.10;91.70;;;;;;5116109;28;20062;-79
2021/08/16 09:22:34;;;;;;;6.13;2.60;;;22.20;91.90;;;;;;5115938;28;20055;-77
2021/08/16 09:25:06;;;;;;;6.97;2.90;;;22.10;92.00;;;;;;5122283;28;20044;-79
2021/08/16 09:27:34;;;;;;;5.80;3.10;;;22.20;92.20;;;;;;5115930;28;20062;-79
2021/08/16 09:30:01;;;;;;;6.15;2.92;;;22.10;92.20;;;;;;5114779;28;20047;-78
2021/08/16 09:32:34;;;;;;;6.35;3.20;;;22.00;92.10;;;;;;5114709;28;20132;-77
2021/08/16 09:35:08;;;;;;;6.93;3.10;;;21.90;92.40;;;;;;5114551;28;20132;-79
2021/08/16 09:37:38;;;;;;;5.63;3.03;;;21.90;92.60;;;;;;5114846;28;20049;-77
2021/08/16 09:40:10;;;;;;;8.43;3.65;;;21.80;92.70;;;;;;5114658;28;20047;-79
2021/08/16 09:42:45;;;;;;;6.00;3.15;;;21.80;92.10;;;;;;5114506;28;20574;-77
2021/08/16 09:45:14;;;;;;;7.55;3.20;;;21.80;91.80;;;;;;5114174;28;20082;-77
2021/08/16 09:47:43;;;;;;;8.10;3.85;;;21.80;92.20;;;;;;5114222;28;20079;-78
2021/08/16 09:50:12;;;;;;;6.70;3.50;;;21.90;92.30;;;;;;5114077;28;20047;-79
2021/08/16 09:52:41;;;;;;;6.57;3.20;;;21.90;91.90;;;;;;5114019;28;20101;-80
2021/08/16 09:55:11;;;;;;;6.75;3.05;;;21.90;91.90;;;;;;5114436;28;20047;-77
2021/08/16 09:57:40;;;;;;;7.88;3.67;;;22.00;91.70;;;;;;5115311;28;20075;-77
2021/08/16 10:00:09;;;;;;;6.50;3.45;;;21.90;90.50;;;;;;5114309;28;20058;-78
2021/08/16 10:02:37;;;;;;;8.80;3.85;;;21.90;90.20;;;;;;5113846;28;20086;-77
2021/08/16 10:05:06;;;;;;;7.07;3.70;;;21.90;90.50;;;;;;5113869;28;20052;-79
2021/08/16 10:07:35;;;;;;;9.00;4.10;;;21.80;90.50;;;;;;5113989;28;20127;-77
2021/08/16 10:10:03;;;;;;;7.40;3.78;;;21.80;90.80;;;;;;5113620;28;20138;-80
2021/08/16 10:12:33;;;;;;;8.57;3.70;;;21.80;90.40;;;;;;5113774;28;20126;-79
2021/08/16 10:15:02;;;;;;;7.65;3.72;;;21.70;90.10;;;;;;5113615;28;20130;-80
2021/08/16 10:17:37;;;;;;;6.45;3.25;;;21.60;90.20;;;;;;5113707;28;20047;-80
2021/08/16 10:20:07;;;;;;;7.00;3.70;;;21.60;90.00;;;;;;5113791;28;20509;-79
2021/08/16 10:22:39;;;;;;;8.00;3.60;;;21.60;90.00;;;;;;5111548;28;20122;-78
2021/08/16 10:25:14;;;;;;;6.57;3.50;;;21.60;90.60;;;;;;5111580;28;20055;-79
2021/08/16 10:27:43;;;;;;;7.30;3.63;;;21.60;90.60;;;;;;5111404;28;20127;-79
2021/08/16 10:30:13;;;;;;;6.90;3.42;;;21.70;90.50;;;;;;5113368;28;20139;-77
2021/08/16 10:32:40;;;;;;;6.85;3.80;;;21.70;90.30;;;;;;5120475;28;20134;-80
2021/08/16 10:35:14;;;;;;;7.22;3.70;;;21.70;90.30;;;;;;5132977;27;20085;-77
2021/08/16 10:37:44;;;;;;;12.32;4.22;;;21.60;90.50;;;;;;5098628;28;20051;-77
2021/08/16 10:40:22;;;;;;;9.38;3.83;;;21.60;90.30;;;;;;5110800;28;20040;-80
2021/08/16 10:42:53;;;;;;;6.75;3.45;;;21.60;90.20;;;;;;5110888;28;20086;-80
2021/08/16 10:45:30;;;;;;;7.05;3.28;;;21.50;90.40;;;;;;5110859;28;20047;-78
2021/08/16 10:48:04;;;;;;;6.63;3.03;;;21.50;90.70;;;;;;5110918;28;20058;-79
2021/08/16 10:50:31;;;;;;;6.78;3.05;;;21.40;90.80;;;;;;5110854;28;20427;-78
2021/08/16 10:53:04;;;;;;;8.25;3.35;;;21.40;90.80;;;;;;5110443;28;20151;-76
2021/08/16 10:55:35;;;;;;;8.55;3.67;;;21.50;91.00;;;;;;5110814;28;20143;-79
2021/08/16 10:58:08;;;;;;;6.18;3.10;;;21.50;91.20;;;;;;5110239;28;20069;-77
2021/08/16 11:00:35;;;;;;;7.63;3.72;;;21.60;91.40;;;;;;5109673;28;20043;-78
2021/08/16 11:03:02;;;;;;;7.05;3.10;;;21.70;91.10;;;;;;5110172;28;20047;-78
2021/08/16 11:05:31;;;;;;;7.18;3.55;;;21.70;90.70;;;;;;5110333;28;21339;-78
2021/08/16 11:08:02;;;;;;;6.32;3.08;;;21.70;90.80;;;;;;5110122;28;20130;-77
2021/08/16 11:10:38;;;;;;;7.88;3.20;;;21.80;91.10;;;;;;5110065;28;20462;-80
2021/08/16 11:13:12;;;;;;;6.07;3.00;;;22.00;91.00;;;;;;5110262;28;20079;-78
2021/08/16 11:15:40;;;;;;;6.97;3.13;;;22.10;90.50;;;;;;5110337;28;20473;-78
2021/08/16 11:18:16;;;;;;;6.78;3.03;;;22.10;90.20;;;;;;5110195;28;20131;-77
2021/08/16 11:20:46;;;;;;;7.80;3.47;;;22.10;89.70;;;;;;5109618;28;20044;-79
2021/08/16 11:23:14;;;;;;;7.03;2.85;;;22.10;90.00;;;;;;5092984;28;20047;-80
2021/08/16 11:25:52;;;;;;;5.97;2.75;;;22.10;90.30;;;;;;5110258;28;20056;-80
2021/08/16 11:28:23;;;;;;;7.15;3.03;;;22.10;89.90;;;;;;5121900;28;20051;-77
2021/08/16 11:30:51;;;;;;;6.88;3.05;;;22.10;90.00;;;;;;5117003;28;20560;-79
2021/08/16 11:33:26;;;;;;;5.63;2.90;;;22.10;90.20;;;;;;5113339;28;20134;-79
2021/08/16 11:36:04;;;;;;;;;;;22.10;90.20;;;;;;5119086;28;20521;-78
2021/08/16 11:38:31;;;;;;;6.53;3.00;;;22.10;90.10;;;;;;5144322;27;19983;-79
2021/08/16 11:41:09;;;;;;;7.07;3.03;;;22.20;90.00;;;;;;5128074;27;20186;-78
2021/08/16 11:43:38;;;;;;;8.27;3.38;;;22.30;90.20;;;;;;5116286;28;20126;-77
2021/08/16 11:46:13;;;;;;;5.63;2.70;;;22.40;88.90;;;;;;5122600;28;20489;-77
2021/08/16 11:48:43;;;;;;;7.82;3.20;;;22.40;88.70;;;;;;5123549;28;20069;-74
2021/08/16 11:51:12;;;;;;;6.60;2.90;;;22.60;88.60;;;;;;5121932;28;20075;-76
2021/08/16 11:53:41;;;;;;;7.15;2.97;;;22.60;88.70;;;;;;5121832;28;20082;-76
2021/08/16 11:56:08;;;;;;;5.85;2.83;;;22.60;88.60;;;;;;5123830;28;20044;-77
2021/08/16 11:58:39;;;;;;;7.97;2.72;;;22.70;87.90;;;;;;5120172;28;20615;-77
2021/08/16 12:01:07;;;;;;;6.10;2.80;;;22.70;87.70;;;;;;5120571;28;20075;-77
2021/08/16 12:03:37;;;;;;;7.50;3.45;;;22.80;86.60;;;;;;5125363;28;20108;-75
2021/08/16 12:06:05;;;;;;;7.93;3.15;;;22.80;86.90;;;;;;5124935;28;20036;-75
2021/08/16 12:08:34;;;;;;;6.22;2.92;;;22.80;86.20;;;;;;5126245;28;20071;-75
2021/08/16 12:11:01;;;;;;;7.30;3.30;;;22.90;87.80;;;;;;5121307;28;20047;-77
2021/08/16 12:13:28;;;;;;;5.93;2.80;;;23.00;86.10;;;;;;5123798;28;20127;-76
2021/08/16 12:15:56;;;;;;;5.63;2.85;;;23.00;85.30;;;;;;5121486;28;20561;-76
2021/08/16 12:18:28;;;;;;;6.82;2.90;;;23.10;85.60;;;;;;5117160;28;20126;-77
2021/08/16 12:20:57;;;;;;;5.60;2.70;;;23.20;84.90;;;;;;5116615;28;20048;-76
2021/08/16 12:23:27;;;;;;;6.53;2.97;;;23.30;85.10;;;;;;5116888;28;20067;-75
2021/08/16 12:25:54;;;;;;;5.47;2.80;;;23.50;85.00;;;;;;5117864;28;20051;-78
2021/08/16 12:28:21;;;;;;;7.07;2.90;;;23.60;85.60;;;;;;5122212;28;20077;-76
2021/08/16 12:30:49;;;;;;;6.47;3.05;;;23.80;83.90;;;;;;5120850;28;20126;-78
2021/08/16 12:33:19;;;;;;;7.40;2.83;;;23.80;81.70;;;;;;5112424;28;20050;-76
2021/08/16 12:35:57;;;;;;;6.40;2.90;;;23.70;82.80;;;;;;5116602;28;20039;-75
2021/08/16 12:38:29;;;;;;;6.15;3.03;;;23.70;82.40;;;;;;5117244;28;20107;-76
2021/08/16 12:41:01;;;;;;;5.93;2.97;;;23.60;81.60;;;;;;5130837;27;20135;-75
2021/08/16 12:43:38;;;;;;;8.70;3.30;;;23.50;81.80;;;;;;5133608;27;20047;-75
2021/08/16 12:46:05;;;;;;;6.03;2.95;;;23.40;82.30;;;;;;5121271;27;20524;-78
2021/08/16 12:48:41;;;;;;;6.13;3.17;;;23.20;82.80;;;;;;5116401;28;20507;-74
2021/08/16 12:51:09;;;;;;;9.18;4.88;;;23.20;83.70;;;;;;5122997;28;20131;-75